Time;durP1;ratioP1;P1;durP2;ratioP2;P2;SDS_P1;SDS_P2;PMS_P1;PMS_P2;Temp;Humidity;BMP_temperature;BMP_pressure;BME280_temperature;BME280_humidity;BME280_pressure;Samples;Min_cycle;Max_cycle;Signal;HPM_P1;HPM_P2
2021/10/17 00:00:41;;;;;;;16.95;6.28;;;;;;;;;;5095456;28;20055;-86
2021/10/17 00:03:07;;;;;;;11.93;4.75;;;;;;;;;;5095412;28;20024;-84
2021/10/17 00:05:34;;;;;;;13.45;5.57;;;;;;;;;;5095348;28;20090;-84
2021/10/17 00:08:00;;;;;;;10.98;4.22;;;;;;;;;;5096604;28;20495;-86
2021/10/17 00:10:30;;;;;;;7.45;3.47;;;;;;;;;;5096551;28;20111;-85
2021/10/17 00:12:57;;;;;;;10.93;3.28;;;;;;;;;;5095212;28;20435;-85
2021/10/17 00:15:25;;;;;;;5.25;2.22;;;;;;;;;;5095213;28;20388;-85
2021/10/17 00:17:52;;;;;;;5.60;3.00;;;;;;;;;;5096364;28;20021;-85
2021/10/17 00:20:19;;;;;;;5.43;2.38;;;;;;;;;;5095135;28;20036;-84
2021/10/17 00:22:45;;;;;;;5.80;2.13;;;;;;;;;;5094987;28;20107;-85
2021/10/17 00:25:12;;;;;;;4.03;2.00;;;;;;;;;;5094906;28;20063;-86
2021/10/17 00:27:38;;;;;;;4.13;1.98;;;;;;;;;;5095062;28;20392;-85
2021/10/17 00:30:05;;;;;;;5.18;2.28;;;;;;;;;;5094893;28;20081;-86
2021/10/17 00:32:31;;;;;;;4.22;2.20;;;;;;;;;;5094903;28;20078;-85
2021/10/17 00:34:59;;;;;;;5.72;2.17;;;;;;;;;;5094874;28;20032;-86
2021/10/17 00:37:28;;;;;;;8.88;2.30;;;;;;;;;;5095053;28;20049;-85
2021/10/17 00:39:55;;;;;;;8.13;2.28;;;;;;;;;;5094794;28;20124;-85
2021/10/17 00:42:21;;;;;;;8.48;2.75;;;;;;;;;;5094687;28;20051;-85
2021/10/17 00:44:57;;;;;;;3.47;1.92;;;;;;;;;;5096425;28;20487;-85
2021/10/17 00:47:24;;;;;;;8.88;2.05;;;;;;;;;;5095874;28;20027;-85
2021/10/17 00:49:50;;;;;;;4.07;1.92;;;;;;;;;;5094201;28;20477;-85
2021/10/17 00:52:17;;;;;;;4.40;2.03;;;;;;;;;;5094763;28;20027;-84
2021/10/17 00:54:44;;;;;;;5.53;2.00;;;;;;;;;;5094460;28;20070;-85
2021/10/17 00:57:11;;;;;;;8.35;2.88;;;;;;;;;;5094439;28;20065;-86
2021/10/17 00:59:37;;;;;;;6.38;2.83;;;;;;;;;;5094170;28;20138;-85
2021/10/17 01:02:03;;;;;;;4.82;2.25;;;;;;;;;;5094345;28;20076;-84
2021/10/17 01:04:31;;;;;;;4.00;2.22;;;;;;;;;;5095478;28;20499;-85
2021/10/17 01:06:58;;;;;;;3.80;1.80;;;;;;;;;;5094162;28;20492;-85
2021/10/17 01:09:24;;;;;;;4.70;2.47;;;;;;;;;;5094239;28;20028;-85
2021/10/17 01:11:50;;;;;;;4.00;1.70;;;;;;;;;;5094403;28;20038;-84
2021/10/17 01:14:17;;;;;;;5.35;1.60;;;;;;;;;;5094036;28;20032;-85
2021/10/17 01:16:44;;;;;;;8.23;2.63;;;;;;;;;;5094003;28;20028;-85
2021/10/17 01:19:10;;;;;;;6.22;2.55;;;;;;;;;;5094040;28;20020;-85
2021/10/17 01:21:37;;;;;;;4.38;2.30;;;;;;;;;;5095224;28;20581;-85
2021/10/17 01:24:04;;;;;;;4.72;2.58;;;;;;;;;;5093806;28;20026;-84
2021/10/17 01:26:31;;;;;;;4.85;2.35;;;;;;;;;;5093880;28;20456;-85
2021/10/17 01:28:57;;;;;;;5.28;1.83;;;;;;;;;;5094014;28;20024;-84
2021/10/17 01:31:33;;;;;;;6.07;2.08;;;;;;;;;;5094992;28;20056;-85
2021/10/17 01:34:00;;;;;;;9.75;3.50;;;;;;;;;;5093662;28;20032;-85
2021/10/17 01:36:26;;;;;;;5.55;2.22;;;;;;;;;;5093638;28;20028;-84
2021/10/17 01:38:52;;;;;;;4.38;1.73;;;;;;;;;;5095445;28;20107;-85
2021/10/17 01:41:19;;;;;;;9.38;2.60;;;;;;;;;;5093518;28;20043;-85
2021/10/17 01:43:45;;;;;;;4.22;2.05;;;;;;;;;;5093506;28;20537;-85
2021/10/17 01:46:11;;;;;;;6.13;2.55;;;;;;;;;;5094653;28;20028;-85
2021/10/17 01:48:38;;;;;;;5.78;2.60;;;;;;;;;;5093403;28;20036;-84
2021/10/17 01:51:04;;;;;;;6.20;1.65;;;;;;;;;;5094675;28;20059;-84
2021/10/17 01:53:30;;;;;;;7.70;2.60;;;;;;;;;;5093249;28;20028;-86
2021/10/17 01:56:00;;;;;;;7.35;2.15;;;;;;;;;;5094569;28;20477;-85
2021/10/17 01:58:27;;;;;;;7.50;2.20;;;;;;;;;;5094254;28;20089;-84
2021/10/17 02:00:53;;;;;;;5.10;2.13;;;;;;;;;;5094984;28;20024;-84
2021/10/17 02:03:20;;;;;;;8.35;2.42;;;;;;;;;;5092390;28;20027;-85
2021/10/17 02:05:46;;;;;;;4.50;2.08;;;;;;;;;;5092934;28;20032;-84
2021/10/17 02:08:12;;;;;;;4.53;1.95;;;;;;;;;;5093125;28;20031;-84
2021/10/17 02:10:39;;;;;;;8.40;2.58;;;;;;;;;;5092962;28;20476;-84
2021/10/17 02:13:06;;;;;;;6.20;2.25;;;;;;;;;;5094820;28;20024;-84
2021/10/17 02:15:32;;;;;;;3.70;1.65;;;;;;;;;;5094726;28;20090;-84
2021/10/17 02:17:59;;;;;;;5.47;2.25;;;;;;;;;;5094643;28;20538;-84
2021/10/17 02:20:25;;;;;;;8.57;2.78;;;;;;;;;;5094670;28;20105;-83
2021/10/17 02:22:51;;;;;;;4.03;1.85;;;;;;;;;;5092752;28;20054;-84
2021/10/17 02:25:17;;;;;;;7.60;2.13;;;;;;;;;;5093983;28;20137;-85
2021/10/17 02:27:43;;;;;;;6.05;2.80;;;;;;;;;;5092822;28;20107;-84
2021/10/17 02:30:10;;;;;;;5.90;2.03;;;;;;;;;;5092599;28;20024;-84
2021/10/17 02:32:36;;;;;;;7.35;2.00;;;;;;;;;;5092590;28;20419;-83
2021/10/17 02:35:02;;;;;;;3.25;1.33;;;;;;;;;;5092533;28;20067;-85
2021/10/17 02:37:31;;;;;;;7.32;2.53;;;;;;;;;;5092546;28;20114;-84
2021/10/17 02:39:58;;;;;;;3.85;1.75;;;;;;;;;;5092514;28;20028;-83
2021/10/17 02:42:25;;;;;;;3.55;1.73;;;;;;;;;;5092512;28;20026;-85
2021/10/17 02:44:51;;;;;;;5.05;1.95;;;;;;;;;;5093645;28;20036;-83
2021/10/17 02:47:17;;;;;;;5.20;2.75;;;;;;;;;;5092383;28;20049;-84
2021/10/17 02:49:44;;;;;;;5.15;1.88;;;;;;;;;;5092362;28;20389;-84
2021/10/17 02:52:10;;;;;;;5.72;2.33;;;;;;;;;;5094242;28;20020;-84
2021/10/17 02:54:36;;;;;;;5.50;2.42;;;;;;;;;;5092287;28;20111;-85
2021/10/17 02:57:03;;;;;;;5.68;2.33;;;;;;;;;;5092339;28;20058;-84
2021/10/17 02:59:29;;;;;;;5.72;2.25;;;;;;;;;;5093482;28;20089;-83
2021/10/17 03:01:55;;;;;;;4.18;2.22;;;;;;;;;;5093539;28;20032;-84
2021/10/17 03:04:22;;;;;;;6.88;2.88;;;;;;;;;;5092197;28;20036;-83
2021/10/17 03:06:48;;;;;;;7.13;2.17;;;;;;;;;;5093516;28;20024;-84
2021/10/17 03:09:14;;;;;;;4.40;1.67;;;;;;;;;;5092244;28;20030;-83
2021/10/17 03:11:41;;;;;;;7.88;2.13;;;;;;;;;;5092164;28;20024;-83
2021/10/17 03:14:08;;;;;;;5.85;2.45;;;;;;;;;;5096010;28;20024;-83
2021/10/17 03:16:34;;;;;;;4.43;2.05;;;;;;;;;;5096361;28;20024;-85
2021/10/17 03:19:01;;;;;;;5.82;1.92;;;;;;;;;;5096259;28;20031;-84
2021/10/17 03:21:27;;;;;;;4.28;2.05;;;;;;;;;;5097480;28;20028;-83
2021/10/17 03:23:53;;;;;;;4.85;1.95;;;;;;;;;;5096060;28;20392;-84
2021/10/17 03:26:19;;;;;;;3.90;1.58;;;;;;;;;;5096099;28;20469;-84
2021/10/17 03:28:46;;;;;;;3.00;1.60;;;;;;;;;;5097380;28;20492;-85
2021/10/17 03:31:12;;;;;;;3.67;1.50;;;;;;;;;;5096081;28;20453;-83
2021/10/17 03:33:38;;;;;;;5.03;1.98;;;;;;;;;;5097359;28;20024;-83
2021/10/17 03:36:05;;;;;;;10.20;2.38;;;;;;;;;;5095946;28;20035;-84
2021/10/17 03:38:31;;;;;;;5.40;2.10;;;;;;;;;;5095915;28;20035;-84
2021/10/17 03:40:57;;;;;;;10.55;2.47;;;;;;;;;;5097179;28;20469;-85
2021/10/17 03:43:23;;;;;;;6.25;2.60;;;;;;;;;;5095817;28;20426;-84
2021/10/17 03:45:49;;;;;;;5.63;2.28;;;;;;;;;;5095719;28;20032;-85
2021/10/17 03:48:16;;;;;;;7.65;2.40;;;;;;;;;;5097019;28;20476;-84
2021/10/17 03:50:42;;;;;;;4.57;1.95;;;;;;;;;;5097539;28;20023;-83
2021/10/17 03:53:08;;;;;;;6.03;1.88;;;;;;;;;;5095668;28;20039;-84
2021/10/17 03:55:35;;;;;;;12.85;3.92;;;;;;;;;;5095568;28;20107;-84
2021/10/17 03:58:01;;;;;;;14.65;5.65;;;;;;;;;;5095369;28;20507;-85
2021/10/17 04:00:27;;;;;;;11.63;5.18;;;;;;;;;;5095550;28;20036;-84
2021/10/17 04:02:53;;;;;;;6.97;3.65;;;;;;;;;;5096724;28;20077;-84
2021/10/17 04:05:20;;;;;;;11.48;4.35;;;;;;;;;;5095353;28;20142;-84
2021/10/17 04:07:46;;;;;;;11.15;4.38;;;;;;;;;;5097138;28;20122;-84
2021/10/17 04:10:12;;;;;;;10.45;4.10;;;;;;;;;;5095294;28;20031;-84
2021/10/17 04:12:38;;;;;;;13.27;4.22;;;;;;;;;;5095233;28;20028;-84
2021/10/17 04:15:05;;;;;;;12.15;4.63;;;;;;;;;;5095231;28;20069;-85
2021/10/17 04:17:31;;;;;;;7.30;3.40;;;;;;;;;;5095170;28;20028;-84
2021/10/17 04:19:57;;;;;;;8.52;3.45;;;;;;;;;;5095064;28;20533;-84
2021/10/17 04:22:23;;;;;;;6.72;2.75;;;;;;;;;;5095097;28;20020;-84
2021/10/17 04:24:50;;;;;;;7.72;2.40;;;;;;;;;;5095435;28;20032;-83
2021/10/17 04:27:16;;;;;;;6.30;2.38;;;;;;;;;;5096237;28;20032;-84
2021/10/17 04:29:43;;;;;;;10.00;2.55;;;;;;;;;;5094963;28;20080;-83
2021/10/17 04:32:09;;;;;;;6.00;2.85;;;;;;;;;;5096209;28;20103;-83
2021/10/17 04:34:36;;;;;;;8.18;2.65;;;;;;;;;;5094820;28;20028;-84
2021/10/17 04:37:03;;;;;;;4.20;1.65;;;;;;;;;;5096003;28;20028;-84
2021/10/17 04:39:29;;;;;;;4.10;1.95;;;;;;;;;;5096574;28;20036;-84
2021/10/17 04:41:55;;;;;;;3.13;1.63;;;;;;;;;;5094705;28;20111;-83
2021/10/17 04:44:22;;;;;;;4.28;2.30;;;;;;;;;;5094538;28;20028;-84
2021/10/17 04:46:48;;;;;;;3.17;1.15;;;;;;;;;;5094635;28;20028;-84
2021/10/17 04:49:15;;;;;;;14.90;1.88;;;;;;;;;;5094504;28;20020;-83
2021/10/17 04:51:41;;;;;;;5.82;2.05;;;;;;;;;;5096421;28;20358;-84
2021/10/17 04:54:07;;;;;;;5.07;1.80;;;;;;;;;;5094558;28;20024;-83
2021/10/17 04:56:33;;;;;;;2.92;1.73;;;;;;;;;;5096169;28;20507;-83
2021/10/17 04:59:00;;;;;;;4.35;1.48;;;;;;;;;;5095482;28;20078;-84
2021/10/17 05:01:27;;;;;;;6.53;1.73;;;;;;;;;;5095564;28;20036;-83
2021/10/17 05:03:54;;;;;;;5.75;2.33;;;;;;;;;;5095556;28;20027;-84
2021/10/17 05:06:20;;;;;;;2.72;1.35;;;;;;;;;;5095502;28;20036;-83
2021/10/17 05:08:46;;;;;;;3.05;1.88;;;;;;;;;;5095378;28;20138;-84
2021/10/17 05:11:14;;;;;;;6.45;3.15;;;;;;;;;;5094143;28;20020;-84
2021/10/17 05:13:40;;;;;;;4.20;1.50;;;;;;;;;;5094041;28;20036;-83
2021/10/17 05:16:06;;;;;;;7.20;1.73;;;;;;;;;;5095881;28;20437;-83
2021/10/17 05:18:33;;;;;;;6.45;1.92;;;;;;;;;;5093987;28;20423;-85
2021/10/17 05:20:59;;;;;;;5.93;1.95;;;;;;;;;;5093874;28;20023;-84
2021/10/17 05:23:25;;;;;;;4.00;1.92;;;;;;;;;;5095793;28;20031;-83
2021/10/17 05:25:54;;;;;;;3.55;2.13;;;;;;;;;;5093656;28;20392;-81
2021/10/17 05:28:21;;;;;;;7.20;1.58;;;;;;;;;;5093855;28;20116;-84
2021/10/17 05:30:47;;;;;;;4.15;1.33;;;;;;;;;;5093867;28;20024;-81
2021/10/17 05:33:13;;;;;;;5.20;2.20;;;;;;;;;;5094945;28;20020;-83
2021/10/17 05:35:39;;;;;;;6.20;1.70;;;;;;;;;;5093748;28;20574;-84
2021/10/17 05:38:05;;;;;;;7.38;2.40;;;;;;;;;;5093779;28;20024;-84
2021/10/17 05:40:32;;;;;;;6.38;2.28;;;;;;;;;;5093606;28;20028;-85
2021/10/17 05:42:58;;;;;;;5.40;1.85;;;;;;;;;;5093456;28;20024;-84
2021/10/17 05:45:24;;;;;;;6.88;2.60;;;;;;;;;;5093457;28;20125;-86
2021/10/17 05:47:51;;;;;;;2.92;1.80;;;;;;;;;;5094759;28;20032;-86
2021/10/17 05:50:17;;;;;;;4.38;1.50;;;;;;;;;;5093420;28;20052;-85
2021/10/17 05:52:44;;;;;;;3.72;2.13;;;;;;;;;;5093422;28;20020;-87
2021/10/17 05:55:10;;;;;;;10.18;2.22;;;;;;;;;;5093312;28;20435;-86
2021/10/17 05:57:39;;;;;;;9.35;1.83;;;;;;;;;;5093016;28;20050;-86
2021/10/17 06:00:06;;;;;;;5.82;2.53;;;;;;;;;;5093500;28;20122;-87
2021/10/17 06:02:32;;;;;;;6.45;2.47;;;;;;;;;;5093266;28;20077;-86
2021/10/17 06:04:58;;;;;;;7.03;2.78;;;;;;;;;;5093231;28;20036;-86
2021/10/17 06:07:24;;;;;;;8.70;2.83;;;;;;;;;;5093251;28;20465;-87
2021/10/17 06:09:50;;;;;;;4.55;1.95;;;;;;;;;;5093251;28;20427;-87
2021/10/17 06:12:17;;;;;;;7.93;4.25;;;;;;;;;;5093273;28;20028;-86
2021/10/17 06:14:43;;;;;;;10.05;5.57;;;;;;;;;;5093025;28;20073;-88
2021/10/17 06:17:09;;;;;;;11.93;4.43;;;;;;;;;;5093209;28;20118;-87
2021/10/17 06:19:35;;;;;;;10.93;4.40;;;;;;;;;;5094700;28;20027;-88
2021/10/17 06:22:06;;;;;;;11.05;3.45;;;;;;;;;;5093336;28;20028;-89
2021/10/17 06:24:32;;;;;;;6.90;3.35;;;;;;;;;;5093131;28;20024;-88
2021/10/17 06:26:59;;;;;;;8.98;4.07;;;;;;;;;;5093132;28;20171;-88
2021/10/17 06:29:25;;;;;;;9.63;4.30;;;;;;;;;;5093610;28;20466;-91
2021/10/17 06:31:52;;;;;;;9.52;4.30;;;;;;;;;;5093244;28;20035;-90
2021/10/17 06:34:18;;;;;;;12.13;4.38;;;;;;;;;;5093148;28;20024;-90
2021/10/17 06:36:45;;;;;;;7.10;3.85;;;;;;;;;;5093142;28;20120;-91
2021/10/17 06:39:11;;;;;;;7.95;4.88;;;;;;;;;;5093689;28;20448;-93
2021/10/17 06:41:37;;;;;;;9.82;4.53;;;;;;;;;;5093163;28;20115;-91
2021/10/17 06:44:03;;;;;;;9.88;4.78;;;;;;;;;;5093147;28;20024;-91
2021/10/17 06:46:30;;;;;;;6.78;2.92;;;;;;;;;;5093409;28;20024;-91
2021/10/17 06:48:56;;;;;;;9.50;3.60;;;;;;;;;;5093305;28;20097;-90
2021/10/17 06:51:22;;;;;;;7.70;3.35;;;;;;;;;;5094978;28;20032;-91
2021/10/17 06:53:48;;;;;;;6.05;3.13;;;;;;;;;;5093977;28;20024;-89
2021/10/17 06:56:14;;;;;;;6.82;2.20;;;;;;;;;;5094500;28;20035;-91
2021/10/17 06:58:41;;;;;;;4.53;2.08;;;;;;;;;;5094344;28;20047;-89
2021/10/17 07:01:07;;;;;;;5.70;2.60;;;;;;;;;;5095374;28;20032;-91
2021/10/17 07:03:33;;;;;;;7.80;2.78;;;;;;;;;;5094220;28;20035;-90
2021/10/17 07:06:00;;;;;;;5.43;2.70;;;;;;;;;;5093805;28;20095;-92
2021/10/17 07:08:26;;;;;;;6.55;3.22;;;;;;;;;;5095205;28;20085;-92
2021/10/17 07:10:52;;;;;;;6.90;2.90;;;;;;;;;;5093182;28;20028;-86
2021/10/17 07:13:18;;;;;;;8.07;3.05;;;;;;;;;;5092799;28;20024;-87
2021/10/17 07:15:44;;;;;;;7.65;3.15;;;;;;;;;;5093740;28;20050;-86
2021/10/17 07:18:10;;;;;;;7.63;3.35;;;;;;;;;;5093701;28;20031;-87
2021/10/17 07:20:37;;;;;;;7.10;3.50;;;;;;;;;;5092390;28;20480;-87
2021/10/17 07:23:04;;;;;;;9.93;3.42;;;;;;;;;;5092411;28;20016;-86
2021/10/17 07:25:31;;;;;;;7.03;3.22;;;;;;;;;;5092124;28;20101;-85
2021/10/17 07:27:57;;;;;;;8.63;3.80;;;;;;;;;;5092030;28;20048;-88
2021/10/17 07:30:23;;;;;;;9.98;3.80;;;;;;;;;;5093996;28;20084;-85
2021/10/17 07:32:49;;;;;;;6.47;3.25;;;;;;;;;;5092062;28;20016;-86
2021/10/17 07:35:15;;;;;;;7.75;3.80;;;;;;;;;;5092027;28;20036;-86
2021/10/17 07:37:41;;;;;;;10.57;3.55;;;;;;;;;;5091981;28;20154;-89
2021/10/17 07:40:08;;;;;;;7.47;3.75;;;;;;;;;;5092109;28;20031;-86
2021/10/17 07:42:34;;;;;;;11.23;3.78;;;;;;;;;;5091965;28;20077;-85
2021/10/17 07:45:01;;;;;;;8.77;3.30;;;;;;;;;;5091903;28;20039;-84
2021/10/17 07:47:27;;;;;;;7.35;3.67;;;;;;;;;;5091848;28;20058;-86
2021/10/17 07:49:53;;;;;;;7.55;3.55;;;;;;;;;;5091850;28;20392;-86
2021/10/17 07:52:19;;;;;;;10.52;3.70;;;;;;;;;;5091824;28;20111;-87
2021/10/17 07:54:46;;;;;;;10.23;4.32;;;;;;;;;;5093280;28;20032;-85
2021/10/17 07:57:13;;;;;;;7.90;3.65;;;;;;;;;;5092130;28;20054;-85
2021/10/17 07:59:39;;;;;;;7.65;3.85;;;;;;;;;;5092947;28;20052;-83
2021/10/17 08:02:06;;;;;;;7.70;3.25;;;;;;;;;;5095552;28;20024;-85
2021/10/17 08:04:32;;;;;;;7.13;3.35;;;;;;;;;;5095590;28;20070;-85
2021/10/17 08:06:58;;;;;;;8.45;4.00;;;;;;;;;;5097442;28;20028;-83
2021/10/17 08:09:24;;;;;;;7.38;3.70;;;;;;;;;;5102002;28;20024;-87
2021/10/17 08:11:50;;;;;;;7.88;3.88;;;;;;;;;;5095762;28;20024;-86
2021/10/17 08:14:16;;;;;;;10.20;4.28;;;;;;;;;;5100545;28;20495;-86
2021/10/17 08:16:43;;;;;;;12.20;4.28;;;;;;;;;;5096542;28;20028;-87
2021/10/17 08:19:09;;;;;;;8.88;4.18;;;;;;;;;;5095243;28;20031;-87
2021/10/17 08:21:35;;;;;;;8.13;3.90;;;;;;;;;;5095135;28;20431;-86
2021/10/17 08:24:01;;;;;;;10.40;4.50;;;;;;;;;;5095101;28;20066;-88
2021/10/17 08:26:28;;;;;;;6.72;3.75;;;;;;;;;;5095104;28;20036;-87
2021/10/17 08:28:54;;;;;;;7.63;3.70;;;;;;;;;;5095048;28;20481;-87
2021/10/17 08:31:20;;;;;;;6.85;3.13;;;;;;;;;;5096291;28;20024;-86
2021/10/17 08:33:47;;;;;;;7.75;3.65;;;;;;;;;;5095150;28;20069;-86
2021/10/17 08:36:13;;;;;;;6.40;3.70;;;;;;;;;;5094903;28;20031;-87
2021/10/17 08:38:40;;;;;;;9.38;4.25;;;;;;;;;;5094832;28;20028;-87
2021/10/17 08:41:06;;;;;;;7.80;3.90;;;;;;;;;;5094721;28;20028;-88
2021/10/17 08:43:32;;;;;;;8.70;3.92;;;;;;;;;;5094677;28;20024;-87
2021/10/17 08:45:59;;;;;;;9.75;4.18;;;;;;;;;;5094694;28;20040;-86
2021/10/17 08:48:28;;;;;;;8.10;4.18;;;;;;;;;;5094594;28;20047;-86
2021/10/17 08:50:54;;;;;;;8.93;4.00;;;;;;;;;;5094564;28;20028;-87
2021/10/17 08:53:21;;;;;;;11.93;4.88;;;;;;;;;;5094441;28;20074;-87
2021/10/17 08:55:47;;;;;;;10.60;4.28;;;;;;;;;;5094450;28;20024;-86
2021/10/17 08:58:13;;;;;;;10.80;3.92;;;;;;;;;;5095915;28;20056;-86
2021/10/17 09:00:39;;;;;;;8.30;4.25;;;;;;;;;;5094548;28;20020;-85
2021/10/17 09:03:05;;;;;;;10.05;4.68;;;;;;;;;;5094558;28;20038;-86
2021/10/17 09:05:39;;;;;;;8.98;4.32;;;;;;;;;;5094319;28;20024;-85
2021/10/17 09:08:06;;;;;;;11.20;4.65;;;;;;;;;;5094292;28;20036;-87
2021/10/17 09:10:32;;;;;;;9.45;4.55;;;;;;;;;;5094016;28;20496;-86
2021/10/17 09:13:12;;;;;;;10.32;4.60;;;;;;;;;;5094004;28;20024;-86
2021/10/17 09:15:39;;;;;;;13.18;4.90;;;;;;;;;;5094045;28;20056;-86
2021/10/17 09:18:07;;;;;;;7.68;4.30;;;;;;;;;;5093965;28;20438;-86
2021/10/17 09:20:34;;;;;;;9.02;4.05;;;;;;;;;;5093962;28;20027;-86
2021/10/17 09:23:04;;;;;;;7.70;4.00;;;;;;;;;;5095754;28;20082;-87
2021/10/17 09:25:37;;;;;;;8.93;4.80;;;;;;;;;;5095343;28;20040;-86
2021/10/17 09:28:15;;;;;;;8.85;4.47;;;;;;;;;;5093935;28;20028;-87
2021/10/17 09:30:42;;;;;;;7.72;4.18;;;;;;;;;;5093813;28;20396;-85
2021/10/17 09:33:12;;;;;;;13.75;4.45;;;;;;;;;;5093571;28;20482;-85
2021/10/17 09:35:38;;;;;;;12.43;4.32;;;;;;;;;;5093599;28;20032;-84
2021/10/17 09:38:04;;;;;;;7.72;4.13;;;;;;;;;;5093295;28;20055;-86
2021/10/17 09:40:33;;;;;;;8.13;4.10;;;;;;;;;;5093602;28;20362;-85
2021/10/17 09:43:09;;;;;;;8.02;4.55;;;;;;;;;;5094875;28;20042;-82
2021/10/17 09:45:36;;;;;;;9.75;4.07;;;;;;;;;;5093406;28;20032;-84
2021/10/17 09:48:03;;;;;;;6.15;3.90;;;;;;;;;;5094759;28;20020;-84
2021/10/17 09:50:29;;;;;;;9.48;4.70;;;;;;;;;;5093206;28;20031;-83
2021/10/17 09:52:56;;;;;;;9.35;4.47;;;;;;;;;;5094507;28;20036;-84
2021/10/17 09:55:23;;;;;;;10.88;4.45;;;;;;;;;;5094159;28;20032;-84
2021/10/17 09:57:50;;;;;;;7.80;4.50;;;;;;;;;;5092989;28;20031;-83
2021/10/17 10:00:16;;;;;;;8.00;4.45;;;;;;;;;;5093304;28;20036;-83
2021/10/17 10:02:46;;;;;;;8.25;4.38;;;;;;;;;;5095003;28;20052;-84
2021/10/17 10:05:14;;;;;;;8.23;4.18;;;;;;;;;;5093132;28;20024;-82
2021/10/17 10:07:41;;;;;;;8.70;4.13;;;;;;;;;;5092986;28;20032;-81
2021/10/17 10:10:08;;;;;;;10.18;4.47;;;;;;;;;;5093124;28;20020;-84
2021/10/17 10:12:34;;;;;;;6.90;4.22;;;;;;;;;;5092808;28;20028;-83
2021/10/17 10:15:01;;;;;;;10.60;4.90;;;;;;;;;;5092896;28;20068;-82
2021/10/17 10:17:30;;;;;;;7.65;4.43;;;;;;;;;;5094325;28;20027;-84
2021/10/17 10:19:58;;;;;;;7.65;3.95;;;;;;;;;;5092933;28;20055;-84
2021/10/17 10:22:28;;;;;;;10.65;4.70;;;;;;;;;;5092472;28;20020;-84
2021/10/17 10:24:56;;;;;;;10.50;4.47;;;;;;;;;;5092578;28;20075;-84
2021/10/17 10:27:23;;;;;;;9.85;4.57;;;;;;;;;;5092732;28;20369;-84
2021/10/17 10:29:50;;;;;;;12.93;4.93;;;;;;;;;;5093966;28;20028;-84
2021/10/17 10:32:26;;;;;;;8.50;4.95;;;;;;;;;;5092679;28;20050;-84
2021/10/17 10:34:53;;;;;;;9.82;4.70;;;;;;;;;;5093642;28;20024;-84
2021/10/17 10:37:21;;;;;;;10.45;4.72;;;;;;;;;;5092557;28;20107;-83
2021/10/17 10:40:02;;;;;;;7.82;4.18;;;;;;;;;;5092352;28;20508;-83
2021/10/17 10:42:37;;;;;;;6.55;3.75;;;;;;;;;;5092477;28;20031;-83
2021/10/17 10:45:22;;;;;;;7.93;4.07;;;;;;;;;;5092405;28;20051;-82
2021/10/17 10:47:48;;;;;;;7.30;4.15;;;;;;;;;;5092384;28;20016;-84
2021/10/17 10:50:15;;;;;;;7.13;4.40;;;;;;;;;;5091941;28;20077;-84
2021/10/17 10:52:43;;;;;;;7.00;4.22;;;;;;;;;;5093672;28;20055;-84
2021/10/17 10:55:11;;;;;;;11.77;4.50;;;;;;;;;;5092292;28;20079;-84
2021/10/17 10:57:41;;;;;;;8.77;4.65;;;;;;;;;;5092077;28;20028;-83
2021/10/17 11:00:08;;;;;;;9.27;4.13;;;;;;;;;;5092446;28;20115;-84
2021/10/17 11:02:35;;;;;;;6.40;3.60;;;;;;;;;;5093533;28;20024;-84
2021/10/17 11:05:07;;;;;;;6.13;3.53;;;;;;;;;;5093538;28;20028;-84
2021/10/17 11:07:37;;;;;;;7.88;3.97;;;;;;;;;;5092225;28;20388;-84
2021/10/17 11:10:22;;;;;;;10.35;4.10;;;;;;;;;;5092205;28;20043;-84
2021/10/17 11:12:48;;;;;;;5.82;3.53;;;;;;;;;;5093367;28;20372;-85
2021/10/17 11:15:16;;;;;;;9.05;3.70;;;;;;;;;;5093376;28;20032;-84
2021/10/17 11:17:57;;;;;;;6.10;3.42;;;;;;;;;;5092108;28;20111;-84
2021/10/17 11:20:24;;;;;;;6.85;3.85;;;;;;;;;;5092124;28;20028;-85
2021/10/17 11:22:51;;;;;;;9.10;3.72;;;;;;;;;;5092023;28;20464;-84
2021/10/17 11:25:19;;;;;;;6.82;3.35;;;;;;;;;;5092070;28;20020;-84
2021/10/17 11:27:46;;;;;;;7.30;3.40;;;;;;;;;;5092109;28;20043;-83
2021/10/17 11:30:27;;;;;;;6.43;3.45;;;;;;;;;;5092088;28;20024;-84
2021/10/17 11:32:54;;;;;;;8.93;3.45;;;;;;;;;;5091984;28;20035;-83
2021/10/17 11:35:41;;;;;;;8.95;3.55;;;;;;;;;;5094796;28;20046;-86
2021/10/17 11:38:07;;;;;;;9.65;3.92;;;;;;;;;;5096060;28;20365;-89
2021/10/17 11:40:34;;;;;;;6.55;3.38;;;;;;;;;;5096089;28;20024;-85
2021/10/17 11:43:02;;;;;;;8.05;4.15;;;;;;;;;;5095811;28;20469;-87
2021/10/17 11:45:29;;;;;;;7.95;3.88;;;;;;;;;;5095885;28;20032;-85
2021/10/17 11:47:56;;;;;;;7.32;3.35;;;;;;;;;;5095989;28;20419;-86
2021/10/17 11:50:23;;;;;;;5.88;2.60;;;;;;;;;;5095815;28;20085;-87
2021/10/17 11:52:54;;;;;;;7.65;3.10;;;;;;;;;;5095852;28;20384;-85
2021/10/17 11:55:34;;;;;;;6.72;3.13;;;;;;;;;;5095619;28;20070;-86
2021/10/17 11:58:06;;;;;;;7.45;3.58;;;;;;;;;;5095431;28;20462;-85
2021/10/17 12:00:34;;;;;;;6.47;2.75;;;;;;;;;;5096836;28;20379;-85
2021/10/17 12:03:00;;;;;;;9.02;3.13;;;;;;;;;;5095521;28;20100;-86
2021/10/17 12:05:28;;;;;;;7.85;2.95;;;;;;;;;;5095468;28;20028;-85
2021/10/17 12:07:57;;;;;;;9.90;3.20;;;;;;;;;;5095442;28;20027;-84
2021/10/17 12:10:27;;;;;;;8.82;3.90;;;;;;;;;;5097266;28;20034;-85
2021/10/17 12:12:57;;;;;;;6.38;3.63;;;;;;;;;;5097304;28;20057;-85
2021/10/17 12:15:24;;;;;;;8.18;4.10;;;;;;;;;;5095301;28;20032;-84
2021/10/17 12:18:01;;;;;;;11.00;3.40;;;;;;;;;;5095217;28;20027;-85
2021/10/17 12:20:30;;;;;;;6.60;3.28;;;;;;;;;;5097062;28;20020;-84
2021/10/17 12:22:57;;;;;;;8.07;3.83;;;;;;;;;;5095462;28;20393;-83
2021/10/17 12:25:23;;;;;;;9.48;3.70;;;;;;;;;;5096368;28;20038;-83
2021/10/17 12:27:50;;;;;;;11.10;4.28;;;;;;;;;;5096821;28;20029;-84
2021/10/17 12:30:19;;;;;;;12.40;4.03;;;;;;;;;;5094992;28;20032;-84
2021/10/17 12:32:47;;;;;;;8.80;4.15;;;;;;;;;;5095277;28;20028;-84
2021/10/17 12:35:21;;;;;;;8.25;4.15;;;;;;;;;;5094911;28;20109;-85
2021/10/17 12:37:47;;;;;;;10.38;4.30;;;;;;;;;;5094888;28;20028;-85
2021/10/17 12:40:17;;;;;;;9.00;4.07;;;;;;;;;;5095993;28;20035;-84
2021/10/17 12:42:47;;;;;;;8.43;3.97;;;;;;;;;;5096088;28;20028;-85
2021/10/17 12:45:16;;;;;;;7.97;3.92;;;;;;;;;;5095961;28;20047;-85
2021/10/17 12:47:49;;;;;;;8.93;4.30;;;;;;;;;;5095054;28;20024;-85
2021/10/17 12:50:15;;;;;;;9.40;3.83;;;;;;;;;;5096527;28;20476;-83
2021/10/17 12:52:42;;;;;;;8.60;3.65;;;;;;;;;;5094628;28;20031;-84
2021/10/17 12:55:12;;;;;;;7.90;3.78;;;;;;;;;;5094467;28;20033;-85
2021/10/17 12:57:38;;;;;;;10.30;4.28;;;;;;;;;;5096018;28;20020;-84
2021/10/17 13:00:05;;;;;;;6.03;3.50;;;;;;;;;;5096363;28;20483;-84
2021/10/17 13:02:35;;;;;;;8.27;4.15;;;;;;;;;;5094380;28;20028;-85
2021/10/17 13:05:05;;;;;;;11.10;3.45;;;;;;;;;;5094357;28;20430;-85
2021/10/17 13:07:32;;;;;;;8.55;4.30;;;;;;;;;;5096139;28;20023;-85
2021/10/17 13:10:05;;;;;;;10.30;4.85;;;;;;;;;;5094294;28;20476;-85
2021/10/17 13:12:41;;;;;;;8.52;4.13;;;;;;;;;;5095420;28;20134;-85
2021/10/17 13:15:16;;;;;;;8.93;3.63;;;;;;;;;;5095891;28;20119;-84
2021/10/17 13:17:51;;;;;;;8.60;3.88;;;;;;;;;;5094038;28;20488;-85
2021/10/17 13:20:27;;;;;;;11.63;4.80;;;;;;;;;;5095390;28;20027;-84
2021/10/17 13:22:58;;;;;;;8.00;3.67;;;;;;;;;;5093947;28;20020;-85
2021/10/17 13:25:25;;;;;;;6.68;3.97;;;;;;;;;;5095772;28;20060;-84
2021/10/17 13:27:53;;;;;;;10.43;3.72;;;;;;;;;;5093923;28;20496;-84
2021/10/17 13:30:19;;;;;;;9.65;4.10;;;;;;;;;;5095149;28;20065;-84
2021/10/17 13:32:46;;;;;;;7.07;3.50;;;;;;;;;;5094004;28;20032;-84
2021/10/17 13:35:14;;;;;;;7.88;4.18;;;;;;;;;;5093679;28;20028;-84
2021/10/17 13:37:40;;;;;;;12.25;3.30;;;;;;;;;;5093795;28;20024;-83
2021/10/17 13:40:07;;;;;;;12.55;3.90;;;;;;;;;;5093600;28;20025;-85
2021/10/17 13:42:34;;;;;;;10.32;4.15;;;;;;;;;;5093617;28;20027;-84
2021/10/17 13:45:00;;;;;;;9.82;4.07;;;;;;;;;;5093598;28;20089;-84
2021/10/17 13:47:26;;;;;;;8.55;4.25;;;;;;;;;;5093553;28;20028;-84
2021/10/17 13:49:52;;;;;;;9.43;4.15;;;;;;;;;;5093500;28;20020;-84
2021/10/17 13:52:18;;;;;;;8.60;3.88;;;;;;;;;;5095213;28;20020;-85
2021/10/17 13:54:44;;;;;;;10.23;4.25;;;;;;;;;;5093312;28;20031;-84
2021/10/17 13:57:11;;;;;;;7.15;3.50;;;;;;;;;;5092886;28;20389;-85
2021/10/17 13:59:37;;;;;;;8.98;3.72;;;;;;;;;;5092528;28;20485;-84
2021/10/17 14:02:03;;;;;;;8.02;3.75;;;;;;;;;;5094512;28;20488;-85
2021/10/17 14:04:30;;;;;;;8.35;3.28;;;;;;;;;;5093134;28;20366;-84
2021/10/17 14:06:57;;;;;;;7.43;3.58;;;;;;;;;;5094375;28;20374;-86
2021/10/17 14:09:23;;;;;;;9.38;3.65;;;;;;;;;;5093119;28;20063;-85
2021/10/17 14:11:50;;;;;;;11.68;3.40;;;;;;;;;;5093023;28;20439;-85
2021/10/17 14:14:16;;;;;;;11.15;3.78;;;;;;;;;;5092993;28;20024;-85
2021/10/17 14:16:42;;;;;;;8.27;3.30;;;;;;;;;;5094238;28;20073;-85
2021/10/17 14:19:08;;;;;;;8.55;3.85;;;;;;;;;;5092919;28;20077;-86
2021/10/17 14:21:34;;;;;;;8.50;3.28;;;;;;;;;;5092617;28;20044;-84
2021/10/17 14:24:01;;;;;;;9.55;3.47;;;;;;;;;;5092888;28;20028;-84
2021/10/17 14:26:27;;;;;;;10.65;3.45;;;;;;;;;;5092815;28;20020;-83
2021/10/17 14:28:53;;;;;;;7.95;3.28;;;;;;;;;;5092714;28;20028;-84
2021/10/17 14:31:19;;;;;;;9.65;3.60;;;;;;;;;;5092708;28;20533;-84
2021/10/17 14:33:45;;;;;;;11.00;3.35;;;;;;;;;;5092681;28;20043;-85
2021/10/17 14:36:11;;;;;;;5.43;3.30;;;;;;;;;;5092492;28;20043;-85
2021/10/17 14:38:39;;;;;;;9.82;5.50;;;;;;;;;;5092633;28;20019;-84
2021/10/17 14:41:05;;;;;;;10.13;4.47;;;;;;;;;;5092573;28;20034;-84